createdAt,value
2023-02-13T00:00:49.360Z,3.10
2023-02-13T00:03:25.063Z,3.12
2023-02-13T00:05:52.548Z,3.17
2023-02-13T00:08:20.014Z,3.17
2023-02-13T00:10:48.019Z,3.19
2023-02-13T00:13:16.034Z,3.22
2023-02-13T00:15:43.410Z,3.06
2023-02-13T00:18:11.377Z,3.15
2023-02-13T00:20:38.584Z,3.10
2023-02-13T00:23:06.368Z,3.09
2023-02-13T00:25:33.812Z,3.09
2023-02-13T00:28:01.659Z,3.07
2023-02-13T00:30:29.181Z,3.09
2023-02-13T00:32:56.983Z,3.08
2023-02-13T00:35:25.231Z,3.13
2023-02-13T00:37:53.709Z,3.16
2023-02-13T00:40:25.127Z,3.18
2023-02-13T00:42:52.861Z,3.14
2023-02-13T00:45:20.289Z,3.22
2023-02-13T00:47:48.446Z,3.18
2023-02-13T00:50:15.976Z,3.16
2023-02-13T00:52:43.497Z,3.16
2023-02-13T00:55:13.120Z,3.20
2023-02-13T00:57:40.824Z,3.20
2023-02-13T01:00:08.726Z,3.26
2023-02-13T01:02:36.330Z,3.22
2023-02-13T01:05:03.907Z,3.26
2023-02-13T01:07:31.364Z,3.29
2023-02-13T01:09:58.429Z,3.28
2023-02-13T01:12:27.665Z,3.29
2023-02-13T01:14:54.918Z,3.32
2023-02-13T01:17:22.682Z,3.33
2023-02-13T01:19:49.881Z,3.39
2023-02-13T01:22:17.517Z,3.37
2023-02-13T01:24:44.835Z,3.36
2023-02-13T01:27:12.394Z,3.33
2023-02-13T01:29:39.596Z,3.28
2023-02-13T01:32:07.148Z,3.33
2023-02-13T01:34:34.698Z,3.30
2023-02-13T01:37:02.278Z,3.35
2023-02-13T01:39:29.593Z,3.31
2023-02-13T01:41:57.221Z,3.38
2023-02-13T01:45:12.525Z,3.41
2023-02-13T01:47:45.758Z,3.45
2023-02-13T01:50:31.657Z,3.45
2023-02-13T01:53:08.526Z,3.45
2023-02-13T01:55:45.155Z,3.45
2023-02-13T01:58:16.009Z,3.53
2023-02-13T02:00:50.013Z,3.55
2023-02-13T02:03:40.355Z,3.58
2023-02-13T02:06:15.194Z,3.53
2023-02-13T02:08:42.969Z,3.52
2023-02-13T02:11:25.758Z,3.42
2023-02-13T02:13:53.580Z,3.49
2023-02-13T02:16:32.686Z,3.52
2023-02-13T02:19:03.500Z,3.56
2023-02-13T02:21:49.309Z,3.52
2023-02-13T02:24:54.677Z,3.58
2023-02-13T02:27:34.187Z,3.49
2023-02-13T02:30:36.217Z,3.59
2023-02-13T02:33:12.753Z,3.60
2023-02-13T02:35:47.900Z,3.61
2023-02-13T02:38:23.289Z,3.57
2023-02-13T02:41:02.468Z,3.59
2023-02-13T02:43:51.123Z,3.64
2023-02-13T02:46:25.253Z,3.65
2023-02-13T02:49:13.827Z,3.69
2023-02-13T02:51:45.542Z,3.66
2023-02-13T02:54:43.118Z,3.61
2023-02-13T02:57:23.353Z,3.69
2023-02-13T03:00:16.722Z,3.70
2023-02-13T03:03:02.614Z,3.71
2023-02-13T03:05:50.241Z,3.71
2023-02-13T03:08:38.339Z,3.74
2023-02-13T03:11:24.696Z,3.73
2023-02-13T03:13:53.651Z,3.70
2023-02-13T03:16:42.046Z,3.73
2023-02-13T03:19:46.335Z,3.70
2023-02-13T03:22:39.611Z,3.69
2023-02-13T03:25:36.324Z,3.74
2023-02-13T03:28:49.844Z,3.70
2023-02-13T03:31:43.593Z,3.70
2023-02-13T03:34:17.530Z,3.65
2023-02-13T03:37:07.993Z,3.69
2023-02-13T03:39:56.778Z,3.72
2023-02-13T03:42:49.212Z,3.62
2023-02-13T03:45:43.107Z,3.60
2023-02-13T03:48:31.545Z,3.66
2023-02-13T03:51:00.594Z,3.65
2023-02-13T03:53:30.161Z,3.65
2023-02-13T03:56:18.056Z,3.73
2023-02-13T03:59:09.564Z,3.73
2023-02-13T04:01:37.979Z,3.71
2023-02-13T04:04:05.596Z,3.77
2023-02-13T04:06:56.402Z,3.77
2023-02-13T04:09:28.072Z,3.76
2023-02-13T04:12:19.532Z,3.77
2023-02-13T04:14:55.212Z,3.75
2023-02-13T04:17:30.418Z,3.71
2023-02-13T04:19:58.230Z,3.75
2023-02-13T04:22:25.519Z,3.77
2023-02-13T04:24:52.970Z,3.80
2023-02-13T04:27:20.396Z,3.77
2023-02-13T04:29:47.974Z,3.83
2023-02-13T04:32:15.492Z,3.79
2023-02-13T04:34:43.272Z,3.87
2023-02-13T04:37:10.652Z,3.80
2023-02-13T04:39:38.380Z,3.78
2023-02-13T04:42:05.722Z,3.82
2023-02-13T04:44:33.432Z,3.82
2023-02-13T04:47:00.896Z,3.82
2023-02-13T04:49:28.659Z,3.84
2023-02-13T04:51:56.055Z,3.84
2023-02-13T04:54:23.565Z,3.87
2023-02-13T04:56:50.849Z,3.80
2023-02-13T04:59:18.640Z,3.82
2023-02-13T05:01:46.075Z,3.80
2023-02-13T05:04:16.381Z,3.79
2023-02-13T05:06:43.855Z,3.88
2023-02-13T05:09:11.342Z,3.87
2023-02-13T05:11:38.503Z,3.93
2023-02-13T05:14:06.164Z,3.92
2023-02-13T05:16:33.851Z,3.90
2023-02-13T05:19:01.625Z,3.93
2023-02-13T05:21:47.442Z,3.90
2023-02-13T05:24:14.927Z,3.93
2023-02-13T05:26:42.359Z,3.87
2023-02-13T05:29:23.216Z,3.90
2023-02-13T05:31:53.241Z,3.87
2023-02-13T05:34:21.763Z,3.92
2023-02-13T05:36:49.591Z,3.91
2023-02-13T05:39:17.266Z,3.86
2023-02-13T05:41:45.666Z,3.91
2023-02-13T05:44:13.650Z,3.92
2023-02-13T05:46:41.615Z,3.88
2023-02-13T05:49:10.620Z,3.94
2023-02-13T05:51:37.849Z,3.94
2023-02-13T05:54:05.600Z,3.98
2023-02-13T05:56:32.738Z,3.96
2023-02-13T05:59:00.492Z,3.92
2023-02-13T06:01:27.708Z,3.94
2023-02-13T06:03:57.139Z,3.99
2023-02-13T06:06:25.926Z,3.95
2023-02-13T06:08:53.860Z,3.92
2023-02-13T06:11:21.372Z,3.94
2023-02-13T06:13:49.132Z,3.96
2023-02-13T06:16:16.279Z,3.94
2023-02-13T06:18:43.868Z,3.95
2023-02-13T06:21:11.100Z,3.96
2023-02-13T06:23:38.916Z,3.96
2023-02-13T06:26:08.083Z,3.97
2023-02-13T06:28:35.992Z,3.95
2023-02-13T06:31:03.414Z,3.99
2023-02-13T06:33:31.215Z,4.00
2023-02-13T06:35:58.485Z,3.92
2023-02-13T06:38:25.978Z,4.01
2023-02-13T06:40:53.359Z,4.01
2023-02-13T06:43:21.129Z,4.01
2023-02-13T06:45:48.275Z,3.89
2023-02-13T06:48:15.624Z,3.96
2023-02-13T06:50:42.938Z,3.93
2023-02-13T06:53:10.695Z,3.98
2023-02-13T06:55:39.583Z,3.99
2023-02-13T06:58:07.003Z,3.96
2023-02-13T07:00:34.250Z,4.06
2023-02-13T07:03:04.636Z,4.06
2023-02-13T07:05:33.353Z,4.07
2023-02-13T07:08:00.935Z,4.05
2023-02-13T07:10:28.308Z,4.11
2023-02-13T07:13:05.264Z,4.09
2023-02-13T07:15:34.035Z,4.16
2023-02-13T07:18:02.106Z,4.14
2023-02-13T07:20:29.656Z,4.14
2023-02-13T07:23:01.999Z,4.24
2023-02-13T07:25:29.897Z,4.26
2023-02-13T07:28:05.101Z,4.27
2023-02-13T07:30:33.380Z,4.32
2023-02-13T07:33:04.892Z,4.34
2023-02-13T07:35:32.522Z,4.41
2023-02-13T07:38:00.959Z,4.34
2023-02-13T07:40:28.384Z,4.38
2023-02-13T07:42:56.632Z,4.37
2023-02-13T07:45:23.981Z,4.42
2023-02-13T07:47:51.578Z,4.41
2023-02-13T07:50:18.899Z,4.42
2023-02-13T07:52:54.098Z,4.34
2023-02-13T07:55:21.765Z,4.35
2023-02-13T07:57:49.746Z,4.38
2023-02-13T08:00:17.609Z,4.36
2023-02-13T08:02:45.800Z,4.34
2023-02-13T08:05:13.153Z,4.31
2023-02-13T08:07:40.974Z,4.36
2023-02-13T08:10:27.371Z,4.37
2023-02-13T08:12:55.395Z,4.32
2023-02-13T08:15:23.956Z,4.30
2023-02-13T08:17:51.834Z,4.28
2023-02-13T08:20:19.196Z,4.32
2023-02-13T08:22:46.713Z,4.32
2023-02-13T08:25:14.224Z,4.37
2023-02-13T08:27:41.855Z,4.44
2023-02-13T08:30:10.272Z,4.38
2023-02-13T08:32:53.076Z,4.57
2023-02-13T08:35:20.812Z,4.55
2023-02-13T08:37:48.430Z,4.62
2023-02-13T08:40:15.606Z,4.61
2023-02-13T08:42:43.818Z,4.64
2023-02-13T08:45:11.980Z,4.70
2023-02-13T08:47:40.139Z,4.72
2023-02-13T08:50:08.156Z,4.57
2023-02-13T08:52:35.887Z,4.60
2023-02-13T08:55:03.925Z,4.58
2023-02-13T08:57:31.727Z,4.56
2023-02-13T08:59:59.006Z,4.56
2023-02-13T09:02:26.665Z,4.62
2023-02-13T09:04:53.894Z,4.61
2023-02-13T09:07:21.156Z,4.57
2023-02-13T09:09:48.521Z,4.63
2023-02-13T09:12:16.163Z,4.60
2023-02-13T09:14:43.542Z,4.59
2023-02-13T09:17:11.401Z,4.54
2023-02-13T09:19:38.695Z,4.59
2023-02-13T09:22:06.441Z,4.66
2023-02-13T09:24:33.805Z,4.69
2023-02-13T09:27:01.377Z,4.75
2023-02-13T09:29:31.895Z,4.76
2023-02-13T09:31:59.690Z,4.83
2023-02-13T09:34:27.390Z,4.89
2023-02-13T09:36:55.101Z,4.88
2023-02-13T09:39:22.720Z,4.87
2023-02-13T09:41:52.524Z,4.96
2023-02-13T09:44:42.352Z,4.99
2023-02-13T09:47:28.695Z,4.97
2023-02-13T09:49:59.344Z,4.97
2023-02-13T09:52:32.838Z,4.94
2023-02-13T09:55:04.430Z,4.89
2023-02-13T09:57:37.603Z,5.01
2023-02-13T10:00:13.500Z,5.04
2023-02-13T10:02:57.410Z,5.05
2023-02-13T10:05:37.174Z,5.06
2023-02-13T10:08:12.972Z,5.05
2023-02-13T10:11:17.776Z,5.09
2023-02-13T10:14:04.090Z,5.01
2023-02-13T10:16:38.476Z,5.05
2023-02-13T10:19:32.276Z,5.04
2023-02-13T10:22:04.945Z,4.95
2023-02-13T10:24:54.362Z,4.92
2023-02-13T10:27:26.866Z,4.94
2023-02-13T10:30:23.695Z,4.93
2023-02-13T10:33:18.606Z,4.93
2023-02-13T10:36:24.736Z,4.84
2023-02-13T10:39:02.986Z,4.90
2023-02-13T10:41:49.240Z,4.86
2023-02-13T10:44:42.514Z,4.87
2023-02-13T10:47:41.055Z,4.87
2023-02-13T10:50:31.262Z,4.90
2023-02-13T10:53:41.165Z,4.91
2023-02-13T10:56:11.287Z,5.00
2023-02-13T10:58:57.486Z,5.04
2023-02-13T11:01:34.208Z,5.08
2023-02-13T11:04:13.532Z,5.02
2023-02-13T11:06:55.700Z,5.11
2023-02-13T11:09:24.243Z,5.10
2023-02-13T11:11:52.414Z,5.15
2023-02-13T11:14:25.314Z,5.17
2023-02-13T11:17:06.088Z,5.16
2023-02-13T11:19:37.378Z,5.12
2023-02-13T11:22:16.868Z,5.08
2023-02-13T11:24:54.194Z,5.04
2023-02-13T11:27:27.364Z,5.05
2023-02-13T11:29:57.653Z,5.01
2023-02-13T11:32:35.341Z,5.02
2023-02-13T11:35:29.497Z,5.00
2023-02-13T11:38:15.722Z,4.94
2023-02-13T11:40:48.804Z,4.98
2023-02-13T11:43:30.620Z,4.97
2023-02-13T11:46:03.754Z,4.86
2023-02-13T11:48:31.486Z,4.86
2023-02-13T11:50:59.420Z,4.96
2023-02-13T11:53:33.149Z,4.93
2023-02-13T11:56:15.301Z,4.95
2023-02-13T11:58:43.312Z,5.00
2023-02-13T12:01:23.073Z,5.04
2023-02-13T12:04:18.153Z,5.08
2023-02-13T12:06:59.561Z,5.18
2023-02-13T12:09:28.520Z,5.19
2023-02-13T12:11:59.509Z,5.31
2023-02-13T12:14:31.037Z,5.45
2023-02-13T12:17:10.868Z,5.42
2023-02-13T12:19:45.940Z,5.50
2023-02-13T12:22:52.485Z,5.47
2023-02-13T12:25:24.218Z,5.38
2023-02-13T12:28:27.150Z,5.40
2023-02-13T12:31:13.123Z,5.39
2023-02-13T12:34:00.650Z,5.37
2023-02-13T12:36:53.120Z,5.42
2023-02-13T12:39:39.328Z,5.36
2023-02-13T12:42:38.516Z,5.38
2023-02-13T12:45:18.555Z,5.36
2023-02-13T12:48:11.914Z,5.36
2023-02-13T12:50:46.474Z,5.31
2023-02-13T12:53:39.845Z,5.38
2023-02-13T12:56:19.514Z,5.41
2023-02-13T12:59:10.081Z,5.36
2023-02-13T13:02:09.619Z,5.51
2023-02-13T13:05:14.312Z,5.61
2023-02-13T13:08:17.638Z,5.69
2023-02-13T13:10:44.919Z,5.75
2023-02-13T13:13:24.389Z,5.87
2023-02-13T13:16:16.576Z,5.90
2023-02-13T13:18:44.555Z,6.05
2023-02-13T13:21:14.569Z,6.07
2023-02-13T13:23:44.601Z,6.02
2023-02-13T13:26:15.166Z,6.01
2023-02-13T13:28:44.370Z,5.99
2023-02-13T13:31:13.876Z,5.92
2023-02-13T13:33:44.465Z,5.93
2023-02-13T13:36:30.596Z,5.82
2023-02-13T13:39:04.274Z,5.80
2023-02-13T13:42:15.347Z,5.77
2023-02-13T13:44:49.227Z,5.75
2023-02-13T13:47:41.291Z,5.76
2023-02-13T13:50:36.078Z,5.78
2023-02-13T13:53:10.402Z,5.73
2023-02-13T13:55:50.880Z,5.75
2023-02-13T13:58:31.678Z,5.64
2023-02-13T14:01:25.281Z,5.67
2023-02-13T14:04:02.485Z,5.67
2023-02-13T14:06:51.894Z,5.66
2023-02-13T14:09:39.822Z,5.58
2023-02-13T14:12:25.759Z,5.52
2023-02-13T14:14:54.285Z,5.53
2023-02-13T14:17:46.978Z,5.52
2023-02-13T14:20:22.293Z,5.45
2023-02-13T14:22:50.171Z,5.42
2023-02-13T14:25:29.764Z,5.35
2023-02-13T14:28:05.010Z,5.39
2023-02-13T14:30:37.245Z,5.41
2023-02-13T14:33:07.586Z,5.38
2023-02-13T14:35:37.570Z,5.33
2023-02-13T14:38:08.277Z,5.41
2023-02-13T14:40:52.644Z,5.39
2023-02-13T14:43:27.877Z,5.40
2023-02-13T14:45:57.198Z,5.39
2023-02-13T14:48:45.671Z,5.41
2023-02-13T14:51:37.334Z,5.36
2023-02-13T14:54:15.438Z,5.34
2023-02-13T14:56:45.532Z,5.35
2023-02-13T14:59:23.335Z,5.29
2023-02-13T15:02:34.278Z,5.28
2023-02-13T15:05:05.013Z,5.29
2023-02-13T15:07:37.403Z,5.30
2023-02-13T15:10:25.727Z,5.32
2023-02-13T15:13:01.341Z,5.30
2023-02-13T15:15:38.358Z,5.27
2023-02-13T15:18:10.184Z,5.27
2023-02-13T15:20:40.219Z,5.28
2023-02-13T15:23:07.754Z,5.29
2023-02-13T15:25:39.644Z,5.23
2023-02-13T15:28:20.170Z,5.19
2023-02-13T15:31:00.251Z,5.17
2023-02-13T15:33:33.114Z,5.22
2023-02-13T15:36:04.766Z,5.21
2023-02-13T15:38:36.623Z,5.24
2023-02-13T15:41:23.404Z,5.25
2023-02-13T15:43:58.302Z,5.15
2023-02-13T15:46:42.171Z,5.15
2023-02-13T15:49:15.626Z,5.16
2023-02-13T15:51:44.130Z,5.13
2023-02-13T15:54:31.440Z,5.14
2023-02-13T15:57:07.319Z,5.18
2023-02-13T15:59:38.213Z,5.14
2023-02-13T16:02:13.066Z,5.13
2023-02-13T16:04:41.696Z,5.08
2023-02-13T16:07:12.236Z,5.14
2023-02-13T16:09:40.107Z,5.08
2023-02-13T16:12:26.913Z,5.06
2023-02-13T16:15:02.480Z,5.09
2023-02-13T16:17:34.489Z,5.07
2023-02-13T16:20:08.786Z,5.06
2023-02-13T16:22:44.221Z,5.03
2023-02-13T16:25:14.687Z,5.07
2023-02-13T16:27:45.975Z,5.10
2023-02-13T16:30:42.353Z,5.04
2023-02-13T16:33:16.292Z,5.04
2023-02-13T16:35:45.638Z,5.04
2023-02-13T16:38:33.118Z,5.08
2023-02-13T16:41:23.840Z,5.10
2023-02-13T16:43:53.261Z,5.07
2023-02-13T16:46:30.795Z,5.06
2023-02-13T16:49:01.495Z,5.06
2023-02-13T16:51:40.504Z,5.02
2023-02-13T16:54:11.331Z,5.08
2023-02-13T16:56:50.039Z,5.06
2023-02-13T16:59:17.798Z,4.97
2023-02-13T17:01:45.074Z,4.98
2023-02-13T17:04:23.723Z,5.00
2023-02-13T17:06:57.457Z,4.95
2023-02-13T17:09:24.988Z,4.95
2023-02-13T17:11:54.165Z,4.93
2023-02-13T17:14:22.044Z,4.95
2023-02-13T17:16:49.632Z,4.94
2023-02-13T17:19:17.258Z,4.97
2023-02-13T17:21:44.718Z,4.99
2023-02-13T17:24:17.942Z,4.98
2023-02-13T17:26:45.354Z,4.94
2023-02-13T17:29:13.025Z,4.95
2023-02-13T17:31:40.556Z,4.95
2023-02-13T17:34:08.322Z,4.88
2023-02-13T17:36:36.058Z,4.95
2023-02-13T17:39:03.976Z,4.96
2023-02-13T17:41:31.445Z,4.91
2023-02-13T17:43:59.230Z,4.96
2023-02-13T17:46:26.745Z,4.89
2023-02-13T17:48:54.421Z,4.84
2023-02-13T17:51:21.875Z,4.87
2023-02-13T17:53:50.422Z,4.93
2023-02-13T17:56:18.023Z,4.95
2023-02-13T17:58:45.804Z,4.96
2023-02-13T18:01:13.278Z,4.93
2023-02-13T18:03:40.779Z,4.91
2023-02-13T18:06:13.210Z,4.90
2023-02-13T18:08:41.135Z,4.87
2023-02-13T18:11:12.380Z,4.89
2023-02-13T18:13:44.180Z,4.86
2023-02-13T18:16:11.748Z,4.80
2023-02-13T18:18:39.519Z,4.78
2023-02-13T18:21:06.919Z,4.74
2023-02-13T18:23:34.632Z,4.77
2023-02-13T18:26:10.291Z,4.72
2023-02-13T18:28:38.207Z,4.74
2023-02-13T18:31:05.733Z,4.73
2023-02-13T18:33:33.363Z,4.73
2023-02-13T18:36:02.656Z,4.70
2023-02-13T18:38:30.444Z,4.69
2023-02-13T18:40:58.206Z,4.70
2023-02-13T18:43:26.123Z,4.72
2023-02-13T18:45:53.705Z,4.73
2023-02-13T18:48:21.455Z,4.68
2023-02-13T18:50:49.024Z,4.68
2023-02-13T18:53:16.745Z,4.64
2023-02-13T18:55:44.029Z,4.69
2023-02-13T18:58:11.747Z,4.71
2023-02-13T19:00:39.139Z,4.69
2023-02-13T19:03:06.680Z,4.68
2023-02-13T19:05:34.415Z,4.65
2023-02-13T19:08:02.392Z,4.66
2023-02-13T19:10:29.760Z,4.54
2023-02-13T19:12:57.530Z,4.62
2023-02-13T19:15:24.819Z,4.62
2023-02-13T19:17:57.271Z,4.58
2023-02-13T19:20:24.673Z,4.60
2023-02-13T19:22:52.693Z,4.58
2023-02-13T19:25:22.122Z,4.49
2023-02-13T19:27:49.854Z,4.60
2023-02-13T19:30:17.350Z,4.57
2023-02-13T19:32:45.188Z,4.58
2023-02-13T19:35:12.513Z,4.54
2023-02-13T19:37:44.043Z,4.52
2023-02-13T19:40:13.551Z,4.60
2023-02-13T19:42:41.242Z,4.42
2023-02-13T19:45:10.550Z,4.51
2023-02-13T19:47:39.166Z,4.42
2023-02-13T19:50:07.288Z,4.47
2023-02-13T19:52:34.999Z,4.49
2023-02-13T19:55:02.514Z,4.46
2023-02-13T19:57:30.542Z,4.50
2023-02-13T20:00:01.029Z,4.44
2023-02-13T20:02:28.940Z,4.45
2023-02-13T20:04:56.601Z,4.38
2023-02-13T20:07:24.330Z,4.41
2023-02-13T20:09:51.666Z,4.46
2023-02-13T20:12:19.378Z,4.43
2023-02-13T20:14:46.706Z,4.41
2023-02-13T20:17:14.475Z,4.43
2023-02-13T20:19:42.094Z,4.41
2023-02-13T20:22:09.977Z,4.41
2023-02-13T20:24:37.519Z,4.38
2023-02-13T20:27:05.270Z,4.39
2023-02-13T20:29:33.863Z,4.38
2023-02-13T20:32:02.236Z,4.34
2023-02-13T20:34:31.621Z,4.37
2023-02-13T20:37:05.278Z,4.31
2023-02-13T20:39:32.668Z,4.30
2023-02-13T20:42:00.439Z,4.27
2023-02-13T20:44:29.668Z,4.25
2023-02-13T20:46:58.723Z,4.25
2023-02-13T20:49:27.189Z,4.27
2023-02-13T20:51:54.937Z,4.27
2023-02-13T20:54:22.305Z,4.28
2023-02-13T20:56:50.150Z,4.27
2023-02-13T20:59:17.607Z,4.29
2023-02-13T21:01:46.743Z,4.24
2023-02-13T21:04:19.290Z,4.19
2023-02-13T21:06:47.699Z,4.18
2023-02-13T21:09:15.812Z,4.19
2023-02-13T21:11:44.911Z,4.16
2023-02-13T21:14:13.079Z,4.15
2023-02-13T21:16:41.855Z,4.16
2023-02-13T21:19:13.598Z,4.15
2023-02-13T21:21:44.284Z,4.16
2023-02-13T21:24:17.646Z,4.12
2023-02-13T21:26:47.008Z,4.14
2023-02-13T21:29:14.521Z,4.11
2023-02-13T21:31:45.137Z,4.13
2023-02-13T21:34:13.641Z,4.12
2023-02-13T21:36:41.438Z,4.12
2023-02-13T21:39:10.252Z,4.10
2023-02-13T21:41:40.851Z,4.11
2023-02-13T21:44:08.318Z,4.13
2023-02-13T21:46:36.168Z,4.09
2023-02-13T21:49:05.935Z,4.08
2023-02-13T21:51:35.711Z,4.08
2023-02-13T21:54:04.599Z,4.00
2023-02-13T21:56:38.463Z,3.98
2023-02-13T21:59:06.809Z,4.11
2023-02-13T22:01:46.787Z,4.12
2023-02-13T22:04:14.270Z,4.06
2023-02-13T22:06:41.872Z,4.02
2023-02-13T22:09:11.953Z,4.06
2023-02-13T22:11:40.005Z,4.03
2023-02-13T22:14:10.709Z,4.08
2023-02-13T22:16:39.448Z,3.79
2023-02-13T22:19:07.299Z,4.04
2023-02-13T22:21:36.509Z,4.05
2023-02-13T22:24:04.170Z,4.05
2023-02-13T22:26:36.500Z,4.02
2023-02-13T22:29:06.599Z,4.02
2023-02-13T22:31:35.192Z,4.07
2023-02-13T22:34:04.334Z,4.07
2023-02-13T22:36:35.039Z,4.06
2023-02-13T22:39:02.540Z,4.03
2023-02-13T22:41:30.340Z,3.97
2023-02-13T22:43:57.820Z,4.02
2023-02-13T22:46:31.206Z,4.03
2023-02-13T22:48:59.805Z,4.04
2023-02-13T22:51:31.327Z,4.01
2023-02-13T22:53:59.264Z,4.01
2023-02-13T22:56:28.547Z,4.03
2023-02-13T22:58:55.992Z,4.03
2023-02-13T23:01:24.981Z,4.04
2023-02-13T23:03:52.518Z,3.95
2023-02-13T23:06:21.986Z,3.99
2023-02-13T23:08:52.798Z,3.97
2023-02-13T23:11:42.280Z,4.01
2023-02-13T23:14:10.443Z,3.94
2023-02-13T23:16:57.847Z,3.92
2023-02-13T23:19:27.412Z,3.96
2023-02-13T23:21:55.773Z,3.98
2023-02-13T23:24:23.058Z,3.97
2023-02-13T23:26:50.878Z,3.99
2023-02-13T23:29:18.425Z,3.96
2023-02-13T23:31:46.232Z,4.01
2023-02-13T23:34:13.600Z,3.95
2023-02-13T23:36:41.272Z,3.94
2023-02-13T23:39:08.628Z,3.98
2023-02-13T23:41:36.129Z,3.94
2023-02-13T23:44:03.537Z,3.97
2023-02-13T23:46:31.193Z,3.96
2023-02-13T23:48:58.580Z,3.96
2023-02-13T23:51:26.470Z,3.92
2023-02-13T23:53:56.356Z,3.93
2023-02-13T23:56:25.366Z,3.95
2023-02-13T23:58:53.234Z,3.93
